sensor_id;sensor_type;location;lat;lon;timestamp;pressure;altitude;pressure_sealevel;temperature;humidity
73748;BME280;62056;52.130;5.428;2023-03-26T00:01:58;100927.78;;;7.86;83.45
73748;BME280;62056;52.130;5.428;2023-03-26T00:04:25;100936.25;;;7.88;82.86
73748;BME280;62056;52.130;5.428;2023-03-26T00:06:51;100932.81;;;7.87;82.98
73748;BME280;62056;52.130;5.428;2023-03-26T00:09:18;100937.03;;;7.88;83.49
73748;BME280;62056;52.130;5.428;2023-03-26T00:11:45;100928.03;;;7.89;83.48
73748;BME280;62056;52.130;5.428;2023-03-26T00:14:12;100935.19;;;7.89;83.43
73748;BME280;62056;52.130;5.428;2023-03-26T00:16:43;100921.16;;;7.88;83.07
73748;BME280;62056;52.130;5.428;2023-03-26T00:19:10;100924.88;;;7.87;82.96
73748;BME280;62056;52.130;5.428;2023-03-26T00:21:37;100926.72;;;7.87;82.96
73748;BME280;62056;52.130;5.428;2023-03-26T00:24:07;100923.28;;;7.86;83.60
73748;BME280;62056;52.130;5.428;2023-03-26T00:26:35;100919.84;;;7.86;84.18
73748;BME280;62056;52.130;5.428;2023-03-26T00:29:04;100919.31;;;7.84;83.26
73748;BME280;62056;52.130;5.428;2023-03-26T00:31:32;100921.97;;;7.84;83.69
73748;BME280;62056;52.130;5.428;2023-03-26T00:33:59;100924.88;;;7.82;83.45
73748;BME280;62056;52.130;5.428;2023-03-26T00:36:28;100919.03;;;7.80;83.57
73748;BME280;62056;52.130;5.428;2023-03-26T00:38:55;100913.75;;;7.80;84.65
73748;BME280;62056;52.130;5.428;2023-03-26T00:41:23;100907.66;;;7.80;84.00
73748;BME280;62056;52.130;5.428;2023-03-26T00:43:54;100903.16;;;7.80;84.76
73748;BME280;62056;52.130;5.428;2023-03-26T00:46:25;100897.34;;;7.78;84.79
73748;BME280;62056;52.130;5.428;2023-03-26T00:48:55;100901.84;;;7.78;85.18
73748;BME280;62056;52.130;5.428;2023-03-26T00:51:24;100896.00;;;7.76;85.21
73748;BME280;62056;52.130;5.428;2023-03-26T00:53:51;100890.97;;;7.74;85.38
73748;BME280;62056;52.130;5.428;2023-03-26T00:56:18;100889.66;;;7.72;84.28
73748;BME280;62056;52.130;5.428;2023-03-26T00:58:45;100879.06;;;7.72;84.32
73748;BME280;62056;52.130;5.428;2023-03-26T01:01:15;100875.91;;;7.69;85.11
73748;BME280;62056;52.130;5.428;2023-03-26T01:03:44;100881.19;;;7.69;85.05
73748;BME280;62056;52.130;5.428;2023-03-26T01:06:29;100883.84;;;7.69;84.83
73748;BME280;62056;52.130;5.428;2023-03-26T01:09:20;100881.44;;;7.68;86.02
73748;BME280;62056;52.130;5.428;2023-03-26T01:11:49;100879.59;;;7.68;85.54
73748;BME280;62056;52.130;5.428;2023-03-26T01:14:21;100880.41;;;7.69;85.87
73748;BME280;62056;52.130;5.428;2023-03-26T01:16:54;100875.91;;;7.69;85.82
73748;BME280;62056;52.130;5.428;2023-03-26T01:22:08;100859.50;;;7.67;86.49
73748;BME280;62056;52.130;5.428;2023-03-26T01:24:37;100854.19;;;7.67;85.93
73748;BME280;62056;52.130;5.428;2023-03-26T01:29:53;100845.72;;;7.65;86.40
73748;BME280;62056;52.130;5.428;2023-03-26T01:32:26;100837.78;;;7.65;85.97
73748;BME280;62056;52.130;5.428;2023-03-26T01:35:21;100839.34;;;7.66;86.58
73748;BME280;62056;52.130;5.428;2023-03-26T01:38:13;100837.78;;;7.65;87.07
73748;BME280;62056;52.130;5.428;2023-03-26T01:40:59;100835.13;;;7.65;87.15
73748;BME280;62056;52.130;5.428;2023-03-26T01:46:08;100825.88;;;7.63;86.93
73748;BME280;62056;52.130;5.428;2023-03-26T01:48:40;100819.78;;;7.62;87.07
73748;BME280;62056;52.130;5.428;2023-03-26T01:51:10;100813.69;;;7.62;86.67
73748;BME280;62056;52.130;5.428;2023-03-26T01:53:42;100816.88;;;7.64;86.67
73748;BME280;62056;52.130;5.428;2023-03-26T01:56:27;100808.94;;;7.64;86.96
73748;BME280;62056;52.130;5.428;2023-03-26T01:59:20;100809.44;;;7.66;87.57
73748;BME280;62056;52.130;5.428;2023-03-26T02:02:11;100803.38;;;7.65;87.58
73748;BME280;62056;52.130;5.428;2023-03-26T02:05:01;100795.44;;;7.65;87.73
73748;BME280;62056;52.130;5.428;2023-03-26T02:07:38;100797.28;;;7.65;87.59
73748;BME280;62056;52.130;5.428;2023-03-26T02:10:11;100788.81;;;7.63;87.17
73748;BME280;62056;52.130;5.428;2023-03-26T02:12:42;100785.09;;;7.64;87.00
73748;BME280;62056;52.130;5.428;2023-03-26T02:15:10;100781.69;;;7.63;87.48
73748;BME280;62056;52.130;5.428;2023-03-26T02:17:37;100780.06;;;7.62;87.52
73748;BME280;62056;52.130;5.428;2023-03-26T02:20:09;100776.91;;;7.60;87.22
73748;BME280;62056;52.130;5.428;2023-03-26T02:22:37;100774.53;;;7.59;87.12
73748;BME280;62056;52.130;5.428;2023-03-26T02:25:08;100775.84;;;7.56;87.59
73748;BME280;62056;52.130;5.428;2023-03-26T02:27:36;100778.50;;;7.56;87.68
73748;BME280;62056;52.130;5.428;2023-03-26T02:30:07;100762.13;;;7.54;87.35
73748;BME280;62056;52.130;5.428;2023-03-26T02:32:35;100765.03;;;7.53;87.57
73748;BME280;62056;52.130;5.428;2023-03-26T02:35:02;100768.72;;;7.52;87.42
73748;BME280;62056;52.130;5.428;2023-03-26T02:37:31;100770.84;;;7.49;87.88
73748;BME280;62056;52.130;5.428;2023-03-26T02:40:01;100761.84;;;7.50;87.34
73748;BME280;62056;52.130;5.428;2023-03-26T02:42:30;100758.41;;;7.50;87.71
73748;BME280;62056;52.130;5.428;2023-03-26T02:44:56;100746.75;;;7.51;87.77
73748;BME280;62056;52.130;5.428;2023-03-26T02:47:23;100751.00;;;7.52;88.02
73748;BME280;62056;52.130;5.428;2023-03-26T02:49:49;100752.84;;;7.52;87.65
73748;BME280;62056;52.130;5.428;2023-03-26T02:52:16;100749.66;;;7.55;87.93
73748;BME280;62056;52.130;5.428;2023-03-26T02:54:44;100745.94;;;7.56;88.29
73748;BME280;62056;52.130;5.428;2023-03-26T02:57:11;100748.59;;;7.56;87.61
73748;BME280;62056;52.130;5.428;2023-03-26T02:59:37;100743.03;;;7.57;88.29
73748;BME280;62056;52.130;5.428;2023-03-26T03:02:04;100747.56;;;7.57;87.56
73748;BME280;62056;52.130;5.428;2023-03-26T03:04:30;100741.19;;;7.58;87.54
73748;BME280;62056;52.130;5.428;2023-03-26T03:06:57;100740.13;;;7.59;88.16
73748;BME280;62056;52.130;5.428;2023-03-26T03:09:25;100739.06;;;7.60;88.16
73748;BME280;62056;52.130;5.428;2023-03-26T03:11:51;100734.84;;;7.59;87.81
73748;BME280;62056;52.130;5.428;2023-03-26T03:14:18;100737.72;;;7.62;88.69
73748;BME280;62056;52.130;5.428;2023-03-26T03:16:45;100731.66;;;7.62;88.25
73748;BME280;62056;52.130;5.428;2023-03-26T03:19:12;100732.16;;;7.64;88.42
73748;BME280;62056;52.130;5.428;2023-03-26T03:21:39;100731.13;;;7.65;88.58
73748;BME280;62056;52.130;5.428;2023-03-26T03:24:08;100725.53;;;7.66;88.03
73748;BME280;62056;52.130;5.428;2023-03-26T03:26:35;100722.91;;;7.66;87.94
73748;BME280;62056;52.130;5.428;2023-03-26T03:29:03;100720.00;;;7.68;87.81
73748;BME280;62056;52.130;5.428;2023-03-26T03:31:29;100718.13;;;7.68;87.32
73748;BME280;62056;52.130;5.428;2023-03-26T03:33:56;100718.38;;;7.72;88.04
73748;BME280;62056;52.130;5.428;2023-03-26T03:36:23;100713.09;;;7.72;87.83
73748;BME280;62056;52.130;5.428;2023-03-26T03:38:53;100712.84;;;7.74;87.44
73748;BME280;62056;52.130;5.428;2023-03-26T03:41:20;100714.94;;;7.77;87.85
73748;BME280;62056;52.130;5.428;2023-03-26T03:43:47;100713.34;;;7.76;88.03
73748;BME280;62056;52.130;5.428;2023-03-26T03:46:14;100713.09;;;7.77;88.40
73748;BME280;62056;52.130;5.428;2023-03-26T03:48:40;100710.44;;;7.77;88.50
73748;BME280;62056;52.130;5.428;2023-03-26T03:51:13;100708.59;;;7.78;88.28
73748;BME280;62056;52.130;5.428;2023-03-26T03:53:40;100711.75;;;7.80;88.31
73748;BME280;62056;52.130;5.428;2023-03-26T03:56:07;100722.09;;;7.81;88.75
73748;BME280;62056;52.130;5.428;2023-03-26T03:58:36;100711.19;;;7.83;88.80
73748;BME280;62056;52.130;5.428;2023-03-26T04:01:02;100705.13;;;7.82;88.73
73748;BME280;62056;52.130;5.428;2023-03-26T04:03:30;100705.91;;;7.83;88.85
73748;BME280;62056;52.130;5.428;2023-03-26T04:06:00;100696.91;;;7.84;89.14
73748;BME280;62056;52.130;5.428;2023-03-26T04:08:26;100694.78;;;7.86;89.07
73748;BME280;62056;52.130;5.428;2023-03-26T04:10:53;100699.00;;;7.87;89.06
73748;BME280;62056;52.130;5.428;2023-03-26T04:13:20;100692.66;;;7.88;89.33
73748;BME280;62056;52.130;5.428;2023-03-26T04:15:47;100684.44;;;7.89;89.50
73748;BME280;62056;52.130;5.428;2023-03-26T04:18:14;100678.88;;;7.91;89.94
73748;BME280;62056;52.130;5.428;2023-03-26T04:20:42;100682.31;;;7.91;89.19
73748;BME280;62056;52.130;5.428;2023-03-26T04:23:13;100674.09;;;7.93;89.88
73748;BME280;62056;52.130;5.428;2023-03-26T04:25:42;100675.97;;;7.93;89.32
73748;BME280;62056;52.130;5.428;2023-03-26T04:28:21;100675.69;;;7.94;89.36
73748;BME280;62056;52.130;5.428;2023-03-26T04:30:53;100670.41;;;7.94;89.54
73748;BME280;62056;52.130;5.428;2023-03-26T04:33:20;100664.28;;;7.94;89.20
73748;BME280;62056;52.130;5.428;2023-03-26T04:35:47;100661.63;;;7.94;89.07
73748;BME280;62056;52.130;5.428;2023-03-26T04:38:14;100659.00;;;7.94;89.52
73748;BME280;62056;52.130;5.428;2023-03-26T04:40:43;100651.03;;;7.94;89.60
73748;BME280;62056;52.130;5.428;2023-03-26T04:43:14;100643.63;;;7.96;89.84
73748;BME280;62056;52.130;5.428;2023-03-26T04:45:42;100646.28;;;7.96;89.80
73748;BME280;62056;52.130;5.428;2023-03-26T04:48:09;100647.88;;;7.97;89.70
73748;BME280;62056;52.130;5.428;2023-03-26T04:50:44;100633.56;;;7.98;89.38
73748;BME280;62056;52.130;5.428;2023-03-26T04:53:13;100631.19;;;7.96;89.92
73748;BME280;62056;52.130;5.428;2023-03-26T04:55:45;100636.19;;;7.98;89.45
73748;BME280;62056;52.130;5.428;2023-03-26T04:58:14;100632.75;;;7.97;89.64
73748;BME280;62056;52.130;5.428;2023-03-26T05:00:41;100620.31;;;7.98;89.89
73748;BME280;62056;52.130;5.428;2023-03-26T05:03:09;100621.91;;;7.99;89.93
73748;BME280;62056;52.130;5.428;2023-03-26T05:05:37;100618.47;;;7.98;89.29
73748;BME280;62056;52.130;5.428;2023-03-26T05:08:05;100604.41;;;7.98;89.41
73748;BME280;62056;52.130;5.428;2023-03-26T05:10:32;100604.41;;;7.98;89.72
73748;BME280;62056;52.130;5.428;2023-03-26T05:12:58;100605.22;;;7.98;89.89
73748;BME280;62056;52.130;5.428;2023-03-26T05:15:25;100603.38;;;7.99;90.30
73748;BME280;62056;52.130;5.428;2023-03-26T05:17:52;100609.44;;;7.99;89.93
73748;BME280;62056;52.130;5.428;2023-03-26T05:20:24;100606.03;;;7.99;89.84
73748;BME280;62056;52.130;5.428;2023-03-26T05:22:51;100597.28;;;7.98;90.24
73748;BME280;62056;52.130;5.428;2023-03-26T05:25:18;100599.94;;;7.98;89.74
73748;BME280;62056;52.130;5.428;2023-03-26T05:27:45;100587.47;;;7.99;90.18
73748;BME280;62056;52.130;5.428;2023-03-26T05:30:15;100589.88;;;8.00;89.98
73748;BME280;62056;52.130;5.428;2023-03-26T05:32:43;100585.63;;;7.99;89.87
73748;BME280;62056;52.130;5.428;2023-03-26T05:35:10;100580.06;;;8.01;89.61
73748;BME280;62056;52.130;5.428;2023-03-26T05:37:37;100589.56;;;8.02;89.93
73748;BME280;62056;52.130;5.428;2023-03-26T05:40:06;100578.97;;;8.02;90.30
73748;BME280;62056;52.130;5.428;2023-03-26T05:42:37;100577.16;;;8.02;90.21
73748;BME280;62056;52.130;5.428;2023-03-26T05:45:06;100577.16;;;8.02;90.08
73748;BME280;62056;52.130;5.428;2023-03-26T05:47:33;100572.63;;;8.03;90.42
73748;BME280;62056;52.130;5.428;2023-03-26T05:50:00;100569.19;;;8.02;90.48
73748;BME280;62056;52.130;5.428;2023-03-26T05:52:27;100571.03;;;8.02;90.35
73748;BME280;62056;52.130;5.428;2023-03-26T05:54:54;100569.97;;;8.03;90.15
73748;BME280;62056;52.130;5.428;2023-03-26T05:57:21;100569.97;;;8.03;90.20
73748;BME280;62056;52.130;5.428;2023-03-26T05:59:49;100565.47;;;8.03;89.91
73748;BME280;62056;52.130;5.428;2023-03-26T06:02:16;100568.13;;;8.03;90.58
73748;BME280;62056;52.130;5.428;2023-03-26T06:04:42;100556.75;;;8.03;90.01
73748;BME280;62056;52.130;5.428;2023-03-26T06:07:11;100558.59;;;8.02;90.57
73748;BME280;62056;52.130;5.428;2023-03-26T06:09:38;100548.78;;;8.03;90.11
73748;BME280;62056;52.130;5.428;2023-03-26T06:12:07;100545.38;;;8.02;89.74
73748;BME280;62056;52.130;5.428;2023-03-26T06:14:35;100540.84;;;8.03;90.19
73748;BME280;62056;52.130;5.428;2023-03-26T06:17:02;100547.44;;;8.05;89.86
73748;BME280;62056;52.130;5.428;2023-03-26T06:19:29;100542.16;;;8.05;90.05
73748;BME280;62056;52.130;5.428;2023-03-26T06:21:55;100535.00;;;8.06;89.95
73748;BME280;62056;52.130;5.428;2023-03-26T06:24:22;100528.63;;;8.07;90.36
73748;BME280;62056;52.130;5.428;2023-03-26T06:26:48;100529.16;;;8.09;89.89
73748;BME280;62056;52.130;5.428;2023-03-26T06:29:15;100526.50;;;8.09;90.25
73748;BME280;62056;52.130;5.428;2023-03-26T06:31:42;100522.00;;;8.09;90.24
73748;BME280;62056;52.130;5.428;2023-03-26T06:34:09;100528.88;;;8.10;90.10
73748;BME280;62056;52.130;5.428;2023-03-26T06:36:36;100522.75;;;8.15;90.18
73748;BME280;62056;52.130;5.428;2023-03-26T06:39:03;100523.47;;;8.21;90.66
73748;BME280;62056;52.130;5.428;2023-03-26T06:41:33;100522.09;;;8.28;91.14
73748;BME280;62056;52.130;5.428;2023-03-26T06:44:00;100521.78;;;8.35;91.58
73748;BME280;62056;52.130;5.428;2023-03-26T06:46:27;100521.72;;;8.45;91.32
73748;BME280;62056;52.130;5.428;2023-03-26T06:48:54;100520.59;;;8.51;91.31
73748;BME280;62056;52.130;5.428;2023-03-26T06:51:21;100521.28;;;8.62;91.67
73748;BME280;62056;52.130;5.428;2023-03-26T06:53:47;100517.25;;;8.70;91.54
73748;BME280;62056;52.130;5.428;2023-03-26T06:56:14;100506.81;;;8.79;91.46
73748;BME280;62056;52.130;5.428;2023-03-26T06:58:41;100512.28;;;8.87;90.93
73748;BME280;62056;52.130;5.428;2023-03-26T07:01:07;100510.09;;;8.95;90.98
73748;BME280;62056;52.130;5.428;2023-03-26T07:03:34;100520.88;;;9.03;90.24
73748;BME280;62056;52.130;5.428;2023-03-26T07:06:01;100516.81;;;9.11;91.01
73748;BME280;62056;52.130;5.428;2023-03-26T07:08:27;100515.94;;;9.16;90.36
73748;BME280;62056;52.130;5.428;2023-03-26T07:10:56;100514.03;;;9.21;90.79
73748;BME280;62056;52.130;5.428;2023-03-26T07:13:23;100513.94;;;9.26;90.24
73748;BME280;62056;52.130;5.428;2023-03-26T07:15:50;100519.22;;;9.31;90.38
73748;BME280;62056;52.130;5.428;2023-03-26T07:18:17;100515.69;;;9.36;89.89
73748;BME280;62056;52.130;5.428;2023-03-26T07:20:44;100505.31;;;9.40;90.35
73748;BME280;62056;52.130;5.428;2023-03-26T07:23:12;100506.81;;;9.46;90.54
73748;BME280;62056;52.130;5.428;2023-03-26T07:25:41;100503.81;;;9.52;89.83
73748;BME280;62056;52.130;5.428;2023-03-26T07:28:32;100510.31;;;9.60;89.77
73748;BME280;62056;52.130;5.428;2023-03-26T07:31:37;100512.69;;;9.62;89.11
73748;BME280;62056;52.130;5.428;2023-03-26T07:34:36;100506.50;;;9.66;88.10
73748;BME280;62056;52.130;5.428;2023-03-26T07:37:20;100501.94;;;9.72;89.71
73748;BME280;62056;52.130;5.428;2023-03-26T07:43:04;100503.44;;;9.78;88.96
73748;BME280;62056;52.130;5.428;2023-03-26T07:45:38;100495.97;;;9.80;90.47
73748;BME280;62056;52.130;5.428;2023-03-26T07:48:20;100502.00;;;9.86;89.61
73748;BME280;62056;52.130;5.428;2023-03-26T07:50:51;100502.19;;;9.89;89.53
73748;BME280;62056;52.130;5.428;2023-03-26T07:53:45;100496.03;;;9.94;89.21
73748;BME280;62056;52.130;5.428;2023-03-26T07:56:19;100493.56;;;9.98;88.86
73748;BME280;62056;52.130;5.428;2023-03-26T07:59:02;100490.34;;;10.01;88.14
73748;BME280;62056;52.130;5.428;2023-03-26T08:02:04;100498.22;;;10.06;88.29
73748;BME280;62056;52.130;5.428;2023-03-26T08:04:47;100492.34;;;10.09;89.28
73748;BME280;62056;52.130;5.428;2023-03-26T08:07:50;100492.34;;;10.09;90.03
73748;BME280;62056;52.130;5.428;2023-03-26T08:10:43;100488.03;;;10.13;90.30
73748;BME280;62056;52.130;5.428;2023-03-26T08:13:29;100496.00;;;10.13;88.56
73748;BME280;62056;52.130;5.428;2023-03-26T08:21:27;100488.13;;;10.22;87.98
73748;BME280;62056;52.130;5.428;2023-03-26T08:24:12;100490.50;;;10.23;87.72
73748;BME280;62056;52.130;5.428;2023-03-26T08:29:52;100486.47;;;10.26;87.04
73748;BME280;62056;52.130;5.428;2023-03-26T08:32:24;100484.31;;;10.28;88.07
73748;BME280;62056;52.130;5.428;2023-03-26T08:34:51;100486.97;;;10.28;87.31
73748;BME280;62056;52.130;5.428;2023-03-26T08:37:18;100484.06;;;10.29;87.27
73748;BME280;62056;52.130;5.428;2023-03-26T08:39:44;100485.63;;;10.30;86.84
73748;BME280;62056;52.130;5.428;2023-03-26T08:42:35;100482.19;;;10.30;85.59
73748;BME280;62056;52.130;5.428;2023-03-26T08:48:48;100484.06;;;10.29;85.44
73748;BME280;62056;52.130;5.428;2023-03-26T08:52:06;100493.06;;;10.28;85.47
73748;BME280;62056;52.130;5.428;2023-03-26T09:00:34;100488.41;;;10.20;87.32
73748;BME280;62056;52.130;5.428;2023-03-26T09:03:23;100490.09;;;10.16;86.44
73748;BME280;62056;52.130;5.428;2023-03-26T09:20:42;100485.91;;;9.96;87.86
73748;BME280;62056;52.130;5.428;2023-03-26T09:26:28;100494.53;;;9.88;86.96
73748;BME280;62056;52.130;5.428;2023-03-26T09:37:57;100497.75;;;9.85;86.09
73748;BME280;62056;52.130;5.428;2023-03-26T09:40:35;100492.16;;;9.86;87.37
73748;BME280;62056;52.130;5.428;2023-03-26T09:43:34;100494.59;;;9.83;87.38
73748;BME280;62056;52.130;5.428;2023-03-26T09:49:40;100499.34;;;9.86;86.96
73748;BME280;62056;52.130;5.428;2023-03-26T09:55:53;100504.78;;;9.95;87.01
73748;BME280;62056;52.130;5.428;2023-03-26T09:59:00;100514.81;;;9.98;88.35
73748;BME280;62056;52.130;5.428;2023-03-26T10:08:04;100517.84;;;9.91;87.27
73748;BME280;62056;52.130;5.428;2023-03-26T10:13:30;100523.25;;;9.86;87.23
73748;BME280;62056;52.130;5.428;2023-03-26T10:19:06;100523.81;;;9.83;84.16
73748;BME280;62056;52.130;5.428;2023-03-26T10:25:09;100521.59;;;9.90;86.71
73748;BME280;62056;52.130;5.428;2023-03-26T10:27:55;100523.44;;;9.89;87.01
73748;BME280;62056;52.130;5.428;2023-03-26T10:31:06;100519.72;;;9.90;86.67
73748;BME280;62056;52.130;5.428;2023-03-26T10:34:13;100532.22;;;9.90;87.10
73748;BME280;62056;52.130;5.428;2023-03-26T10:37:05;100534.88;;;9.90;87.56
73748;BME280;62056;52.130;5.428;2023-03-26T10:48:29;100532.00;;;9.86;86.72
73748;BME280;62056;52.130;5.428;2023-03-26T10:53:43;100539.03;;;9.77;87.36
73748;BME280;62056;52.130;5.428;2023-03-26T10:56:35;100538.03;;;9.73;86.65
73748;BME280;62056;52.130;5.428;2023-03-26T10:59:10;100548.22;;;9.66;86.03
73748;BME280;62056;52.130;5.428;2023-03-26T11:05:14;100556.09;;;9.52;86.33
73748;BME280;62056;52.130;5.428;2023-03-26T11:07:56;100554.28;;;9.47;87.44
73748;BME280;62056;52.130;5.428;2023-03-26T11:10:52;100562.56;;;9.46;86.05
73748;BME280;62056;52.130;5.428;2023-03-26T11:13:41;100562.84;;;9.44;86.91
73748;BME280;62056;52.130;5.428;2023-03-26T11:16:28;100562.38;;;9.37;87.81
73748;BME280;62056;52.130;5.428;2023-03-26T11:19:08;100560.31;;;9.34;88.32
73748;BME280;62056;52.130;5.428;2023-03-26T11:24:44;100570.75;;;9.25;87.77
73748;BME280;62056;52.130;5.428;2023-03-26T11:27:32;100565.47;;;9.25;86.33
73748;BME280;62056;52.130;5.428;2023-03-26T11:30:27;100571.16;;;9.38;86.58
73748;BME280;62056;52.130;5.428;2023-03-26T11:33:00;100577.78;;;9.35;85.18
73748;BME280;62056;52.130;5.428;2023-03-26T11:35:36;100579.19;;;9.51;87.69
73748;BME280;62056;52.130;5.428;2023-03-26T11:38:18;100574.47;;;9.48;86.27
73748;BME280;62056;52.130;5.428;2023-03-26T11:40:49;100583.44;;;9.52;85.91
73748;BME280;62056;52.130;5.428;2023-03-26T11:43:23;100588.75;;;9.52;84.94
73748;BME280;62056;52.130;5.428;2023-03-26T11:45:51;100585.09;;;9.48;84.09
73748;BME280;62056;52.130;5.428;2023-03-26T11:48:30;100587.66;;;9.53;86.14
73748;BME280;62056;52.130;5.428;2023-03-26T11:51:02;100587.47;;;9.50;84.32
73748;BME280;62056;52.130;5.428;2023-03-26T11:53:32;100587.66;;;9.53;84.97
73748;BME280;62056;52.130;5.428;2023-03-26T11:56:08;100594.25;;;9.56;85.44
73748;BME280;62056;52.130;5.428;2023-03-26T11:58:51;100581.06;;;9.51;84.89
73748;BME280;62056;52.130;5.428;2023-03-26T12:01:24;100590.91;;;9.50;84.99
73748;BME280;62056;52.130;5.428;2023-03-26T12:04:36;100598.00;;;9.55;85.21
73748;BME280;62056;52.130;5.428;2023-03-26T12:07:19;100600.44;;;9.51;85.45
73748;BME280;62056;52.130;5.428;2023-03-26T12:09:55;100593.31;;;9.47;86.04
73748;BME280;62056;52.130;5.428;2023-03-26T12:12:45;100594.41;;;9.46;86.16
73748;BME280;62056;52.130;5.428;2023-03-26T12:15:42;100595.69;;;9.48;85.99
73748;BME280;62056;52.130;5.428;2023-03-26T12:18:23;100603.50;;;9.40;85.54
73748;BME280;62056;52.130;5.428;2023-03-26T12:21:04;100604.63;;;9.34;84.05
73748;BME280;62056;52.130;5.428;2023-03-26T12:24:03;100600.38;;;9.32;85.50
73748;BME280;62056;52.130;5.428;2023-03-26T12:26:37;100601.13;;;9.38;85.23
73748;BME280;62056;52.130;5.428;2023-03-26T12:29:11;100611.63;;;9.48;85.48
73748;BME280;62056;52.130;5.428;2023-03-26T12:32:05;100614.00;;;9.50;83.72
73748;BME280;62056;52.130;5.428;2023-03-26T12:34:37;100608.00;;;9.63;84.49
73748;BME280;62056;52.130;5.428;2023-03-26T12:37:06;100613.81;;;9.65;83.32
73748;BME280;62056;52.130;5.428;2023-03-26T12:39:40;100618.47;;;9.55;80.16
73748;BME280;62056;52.130;5.428;2023-03-26T12:42:31;100621.03;;;9.60;81.04
73748;BME280;62056;52.130;5.428;2023-03-26T12:45:27;100614.53;;;9.71;80.71
73748;BME280;62056;52.130;5.428;2023-03-26T12:47:55;100625.47;;;9.64;77.56
73748;BME280;62056;52.130;5.428;2023-03-26T12:56:30;100632.25;;;9.76;79.35
73748;BME280;62056;52.130;5.428;2023-03-26T13:01:55;100643.31;;;9.83;76.34
73748;BME280;62056;52.130;5.428;2023-03-26T13:07:57;100633.34;;;9.93;74.44
73748;BME280;62056;52.130;5.428;2023-03-26T13:11:01;100636.72;;;9.80;71.96
73748;BME280;62056;52.130;5.428;2023-03-26T13:14:03;100647.25;;;9.85;73.13
73748;BME280;62056;52.130;5.428;2023-03-26T13:16:58;100648.63;;;9.83;72.87
73748;BME280;62056;52.130;5.428;2023-03-26T13:19:38;100648.50;;;9.93;70.58
73748;BME280;62056;52.130;5.428;2023-03-26T13:25:04;100661.28;;;9.91;69.72
73748;BME280;62056;52.130;5.428;2023-03-26T13:28:16;100657.34;;;9.88;70.52
73748;BME280;62056;52.130;5.428;2023-03-26T13:31:03;100663.28;;;9.99;71.02
73748;BME280;62056;52.130;5.428;2023-03-26T13:33:39;100659.72;;;10.09;69.47
73748;BME280;62056;52.130;5.428;2023-03-26T13:36:36;100677.03;;;10.06;69.32
73748;BME280;62056;52.130;5.428;2023-03-26T13:42:10;100672.66;;;10.16;71.06
73748;BME280;62056;52.130;5.428;2023-03-26T13:45:09;100663.88;;;10.15;68.92
73748;BME280;62056;52.130;5.428;2023-03-26T13:47:48;100675.06;;;10.12;68.18
73748;BME280;62056;52.130;5.428;2023-03-26T13:50:36;100679.75;;;10.20;69.11
73748;BME280;62056;52.130;5.428;2023-03-26T13:53:10;100675.22;;;10.21;65.85
73748;BME280;62056;52.130;5.428;2023-03-26T13:55:42;100676.97;;;10.30;68.79
73748;BME280;62056;52.130;5.428;2023-03-26T13:58:37;100677.63;;;10.41;67.77
73748;BME280;62056;52.130;5.428;2023-03-26T14:01:18;100686.44;;;10.56;67.83
73748;BME280;62056;52.130;5.428;2023-03-26T14:04:27;100680.50;;;10.45;66.57
73748;BME280;62056;52.130;5.428;2023-03-26T14:07:11;100696.72;;;10.43;66.93
73748;BME280;62056;52.130;5.428;2023-03-26T14:09:54;100696.09;;;10.51;67.68
73748;BME280;62056;52.130;5.428;2023-03-26T14:15:12;100703.56;;;10.49;66.45
73748;BME280;62056;52.130;5.428;2023-03-26T14:17:52;100709.81;;;10.40;65.36
73748;BME280;62056;52.130;5.428;2023-03-26T14:20:41;100705.69;;;10.28;64.56
73748;BME280;62056;52.130;5.428;2023-03-26T14:29:45;100718.47;;;10.26;64.35
73748;BME280;62056;52.130;5.428;2023-03-26T14:35:40;100726.38;;;10.12;64.15
73748;BME280;62056;52.130;5.428;2023-03-26T14:38:46;100733.69;;;10.21;64.21
73748;BME280;62056;52.130;5.428;2023-03-26T14:41:24;100738.00;;;10.17;63.96
73748;BME280;62056;52.130;5.428;2023-03-26T14:44:29;100747.25;;;10.00;62.78
73748;BME280;62056;52.130;5.428;2023-03-26T14:47:19;100746.22;;;9.96;61.99
73748;BME280;62056;52.130;5.428;2023-03-26T14:49:58;100754.41;;;10.00;63.70
73748;BME280;62056;52.130;5.428;2023-03-26T14:52:52;100762.22;;;9.91;62.97
73748;BME280;62056;52.130;5.428;2023-03-26T15:04:13;100787.66;;;9.73;61.88
73748;BME280;62056;52.130;5.428;2023-03-26T15:10:14;100791.50;;;9.86;63.06
73748;BME280;62056;52.130;5.428;2023-03-26T15:13:14;100804.47;;;9.87;61.70
73748;BME280;62056;52.130;5.428;2023-03-26T15:16:05;100799.97;;;9.88;62.84
73748;BME280;62056;52.130;5.428;2023-03-26T15:21:50;100812.06;;;9.75;61.42
73748;BME280;62056;52.130;5.428;2023-03-26T15:30:05;100814.84;;;9.60;60.06
73748;BME280;62056;52.130;5.428;2023-03-26T15:38:47;100832.16;;;9.52;58.36
73748;BME280;62056;52.130;5.428;2023-03-26T15:41:57;100828.69;;;9.57;58.85
73748;BME280;62056;52.130;5.428;2023-03-26T15:44:34;100838.81;;;9.49;58.96
73748;BME280;62056;52.130;5.428;2023-03-26T15:50:31;100862.19;;;9.47;58.46
73748;BME280;62056;52.130;5.428;2023-03-26T15:56:15;100867.38;;;9.28;58.56
73748;BME280;62056;52.130;5.428;2023-03-26T16:04:21;100891.25;;;9.34;58.52
73748;BME280;62056;52.130;5.428;2023-03-26T16:06:58;100902.97;;;9.27;58.72
73748;BME280;62056;52.130;5.428;2023-03-26T16:14:46;100913.19;;;9.05;57.82
73748;BME280;62056;52.130;5.428;2023-03-26T16:26:46;100921.25;;;9.29;58.27
73748;BME280;62056;52.130;5.428;2023-03-26T16:29:20;100929.50;;;9.27;58.98
73748;BME280;62056;52.130;5.428;2023-03-26T16:32:10;100936.28;;;8.99;56.93
73748;BME280;62056;52.130;5.428;2023-03-26T16:37:48;100945.66;;;8.76;56.74
73748;BME280;62056;52.130;5.428;2023-03-26T16:40:25;100954.91;;;8.79;57.19
73748;BME280;62056;52.130;5.428;2023-03-26T16:46:42;100977.75;;;8.69;56.97
73748;BME280;62056;52.130;5.428;2023-03-26T16:49:43;100974.84;;;8.71;56.18
73748;BME280;62056;52.130;5.428;2023-03-26T16:52:44;100989.22;;;8.44;54.32